createdAt,value
2023-03-15T15:56:20.057Z,101188.56
2023-03-15T15:58:46.728Z,101197.31
2023-03-15T16:01:15.217Z,101197.31
2023-03-15T16:03:41.588Z,101207.00
2023-03-15T16:06:17.090Z,101213.13
2023-03-15T16:08:43.955Z,101215.75
2023-03-15T16:11:12.863Z,101224.53
2023-03-15T16:13:39.171Z,101232.44
2023-03-15T16:16:05.745Z,101254.34
2023-03-15T16:18:32.152Z,101249.06
2023-03-15T16:20:59.491Z,101258.66
2023-03-15T16:23:25.860Z,101257.69
2023-03-15T16:25:55.373Z,101264.66
2023-03-15T16:28:23.071Z,101268.94
2023-03-15T16:30:50.078Z,101272.31
2023-03-15T16:33:19.792Z,101273.81
2023-03-15T16:35:47.570Z,101269.25
2023-03-15T16:38:15.897Z,101282.22
2023-03-15T16:40:45.294Z,101268.13
2023-03-15T16:43:12.641Z,101273.22
2023-03-15T16:45:39.184Z,101279.25
2023-03-15T16:48:05.543Z,101291.41
2023-03-15T16:50:33.121Z,101286.94
2023-03-15T16:53:03.552Z,101295.69
2023-03-15T16:55:31.125Z,101307.03
2023-03-15T16:57:57.427Z,101309.66
2023-03-15T17:00:24.025Z,101306.13
2023-03-15T17:02:51.818Z,101319.22
2023-03-15T17:05:19.100Z,101322.72
2023-03-15T17:07:47.633Z,101333.22
2023-03-15T17:10:26.419Z,101338.38
2023-03-15T17:12:54.913Z,101340.16
2023-03-15T17:15:23.613Z,101346.28
2023-03-15T17:17:51.003Z,101345.38
2023-03-15T17:20:17.517Z,101359.44
2023-03-15T17:22:44.015Z,101361.19
2023-03-15T17:25:10.297Z,101361.09
2023-03-15T17:27:42.154Z,101359.28
2023-03-15T17:30:44.207Z,101361.75
2023-03-15T17:33:10.954Z,101368.69
2023-03-15T17:35:42.844Z,101370.50
2023-03-15T17:38:19.324Z,101372.13
2023-03-15T17:40:46.729Z,101372.94
2023-03-15T17:43:15.599Z,101369.38
2023-03-15T17:45:42.465Z,101378.06
2023-03-15T17:48:09.077Z,101378.81
2023-03-15T17:50:35.838Z,101381.34
2023-03-15T17:53:05.340Z,101385.69
2023-03-15T17:55:32.555Z,101385.63
2023-03-15T17:57:58.832Z,101382.09
2023-03-15T18:00:25.312Z,101398.66
2023-03-15T18:02:55.969Z,101394.22
2023-03-15T18:05:25.998Z,101400.28
2023-03-15T18:08:00.272Z,101406.38
2023-03-15T18:10:34.299Z,101401.97
2023-03-15T18:13:00.934Z,101406.25
2023-03-15T18:15:27.333Z,101408.88
2023-03-15T18:17:53.697Z,101412.31
2023-03-15T18:20:20.375Z,101418.34
2023-03-15T18:22:46.693Z,101424.44
2023-03-15T18:25:18.609Z,101429.69
2023-03-15T18:27:44.976Z,101426.16
2023-03-15T18:30:13.321Z,101422.63
2023-03-15T18:32:39.627Z,101424.25
2023-03-15T18:35:06.578Z,101429.56
2023-03-15T18:37:32.892Z,101427.81
2023-03-15T18:39:59.168Z,101434.75
2023-03-15T18:42:25.451Z,101434.66
2023-03-15T18:44:51.730Z,101449.50
2023-03-15T18:47:18.005Z,101449.34
2023-03-15T18:49:44.294Z,101450.28
2023-03-15T18:52:14.216Z,101449.34
2023-03-15T18:54:40.616Z,101453.69
2023-03-15T18:57:06.889Z,101456.25
2023-03-15T18:59:33.229Z,101456.19
2023-03-15T19:01:59.582Z,101465.69
2023-03-15T19:04:25.896Z,101463.94
2023-03-15T19:06:52.195Z,101465.59
2023-03-15T19:09:18.473Z,101462.00
2023-03-15T19:11:44.768Z,101468.94
2023-03-15T19:14:11.247Z,101467.19
2023-03-15T19:16:37.764Z,101465.38
2023-03-15T19:19:04.677Z,101468.81
2023-03-15T19:21:31.036Z,101462.63
2023-03-15T19:23:58.361Z,101469.50
2023-03-15T19:26:24.706Z,101470.31
2023-03-15T19:28:50.992Z,101485.03
2023-03-15T19:31:17.379Z,101485.84
2023-03-15T19:33:43.682Z,101483.06
2023-03-15T19:36:10.076Z,101491.78
2023-03-15T19:38:36.451Z,101495.16
2023-03-15T19:41:04.897Z,101492.47
2023-03-15T19:43:31.237Z,101491.53
2023-03-15T19:45:57.615Z,101500.22
2023-03-15T19:48:23.966Z,101507.19
2023-03-15T19:50:50.275Z,101513.28
2023-03-15T19:53:16.564Z,101511.53
2023-03-15T19:55:42.953Z,101515.03
2023-03-15T19:58:09.244Z,101521.16
2023-03-15T20:00:35.580Z,101524.53
2023-03-15T20:03:02.027Z,101525.41
2023-03-15T20:05:28.324Z,101533.13
2023-03-15T20:07:54.653Z,101527.84
2023-03-15T20:10:21.465Z,101526.81
2023-03-15T20:12:48.007Z,101535.44
2023-03-15T20:15:17.294Z,101531.03
2023-03-15T20:17:43.773Z,101534.47
2023-03-15T20:20:10.628Z,101532.81
2023-03-15T20:22:41.762Z,101545.09
2023-03-15T20:25:09.296Z,101547.63
2023-03-15T20:27:36.219Z,101546.66
2023-03-15T20:30:02.655Z,101550.97
2023-03-15T20:32:30.056Z,101552.38
2023-03-15T20:34:56.389Z,101552.16
2023-03-15T20:37:24.626Z,101556.59
2023-03-15T20:39:50.965Z,101560.19
2023-03-15T20:42:17.244Z,101553.22
2023-03-15T20:44:43.551Z,101548.88
2023-03-15T20:47:09.944Z,101554.19
2023-03-15T20:49:36.396Z,101558.56
2023-03-15T20:52:02.739Z,101558.63
2023-03-15T20:54:29.024Z,101554.88
2023-03-15T20:56:55.337Z,101563.94
2023-03-15T20:59:21.657Z,101563.84
2023-03-15T21:01:48.340Z,101567.91
2023-03-15T21:04:14.896Z,101578.59
2023-03-15T21:06:41.317Z,101579.31
2023-03-15T21:09:07.712Z,101576.31
2023-03-15T21:11:34.034Z,101573.34
2023-03-15T21:14:00.355Z,101584.69
2023-03-15T21:16:26.713Z,101587.06
2023-03-15T21:18:53.055Z,101585.63
2023-03-15T21:21:19.498Z,101585.47
2023-03-15T21:23:45.901Z,101586.38
2023-03-15T21:26:13.578Z,101588.69
2023-03-15T21:28:40.488Z,101590.94
2023-03-15T21:31:07.304Z,101589.44
2023-03-15T21:33:34.215Z,101589.63
2023-03-15T21:36:00.962Z,101585.38
2023-03-15T21:38:28.817Z,101601.03
2023-03-15T21:40:55.145Z,101596.34
2023-03-15T21:43:21.443Z,101595.59
2023-03-15T21:45:47.820Z,101597.81
